sensor_id;sensor_type;location;lat;lon;timestamp;pressure;altitude;pressure_sealevel;temperature;humidity
51227;BME280;42714;48.260;10.980;2023-07-16T00:04:07;967.0;;;20.9;100.0
51227;BME280;42714;48.260;10.980;2023-07-16T00:09:08;967.3;;;20.9;100.0
51227;BME280;42714;48.260;10.980;2023-07-16T00:14:10;967.6;;;20.9;100.0
51227;BME280;42714;48.260;10.980;2023-07-16T00:19:11;968.1;;;20.9;100.0
51227;BME280;42714;48.260;10.980;2023-07-16T00:24:11;969.1;;;21.0;100.0
51227;BME280;42714;48.260;10.980;2023-07-16T00:29:12;969.4;;;21.0;100.0
51227;BME280;42714;48.260;10.980;2023-07-16T00:34:13;969.3;;;21.0;100.0
51227;BME280;42714;48.260;10.980;2023-07-16T00:39:14;969.4;;;21.0;100.0
51227;BME280;42714;48.260;10.980;2023-07-16T00:44:15;969.5;;;21.1;100.0
51227;BME280;42714;48.260;10.980;2023-07-16T00:49:16;969.5;;;21.1;100.0
51227;BME280;42714;48.260;10.980;2023-07-16T00:54:18;969.6;;;21.0;100.0
51227;BME280;42714;48.260;10.980;2023-07-16T00:59:18;969.7;;;21.0;100.0
51227;BME280;42714;48.260;10.980;2023-07-16T01:04:19;969.7;;;21.0;100.0
51227;BME280;42714;48.260;10.980;2023-07-16T01:09:21;969.7;;;21.1;100.0
51227;BME280;42714;48.260;10.980;2023-07-16T01:14:21;969.7;;;21.1;100.0
51227;BME280;42714;48.260;10.980;2023-07-16T01:19:22;969.8;;;21.1;100.0
51227;BME280;42714;48.260;10.980;2023-07-16T01:24:29;969.9;;;21.1;100.0
51227;BME280;42714;48.260;10.980;2023-07-16T01:34:26;969.9;;;21.2;100.0
51227;BME280;42714;48.260;10.980;2023-07-16T01:39:27;970.1;;;21.1;100.0
51227;BME280;42714;48.260;10.980;2023-07-16T01:44:28;970.2;;;21.0;100.0
51227;BME280;42714;48.260;10.980;2023-07-16T01:49:29;970.2;;;20.9;100.0
51227;BME280;42714;48.260;10.980;2023-07-16T01:54:30;970.3;;;20.7;100.0
51227;BME280;42714;48.260;10.980;2023-07-16T01:59:31;970.4;;;20.4;100.0
51227;BME280;42714;48.260;10.980;2023-07-16T02:04:32;970.2;;;20.3;100.0
51227;BME280;42714;48.260;10.980;2023-07-16T02:09:33;970.3;;;20.3;100.0
51227;BME280;42714;48.260;10.980;2023-07-16T02:14:35;970.3;;;20.3;100.0
51227;BME280;42714;48.260;10.980;2023-07-16T02:19:36;970.5;;;20.3;100.0
51227;BME280;42714;48.260;10.980;2023-07-16T02:24:37;970.6;;;20.3;100.0
51227;BME280;42714;48.260;10.980;2023-07-16T02:29:38;970.7;;;20.5;100.0
51227;BME280;42714;48.260;10.980;2023-07-16T02:34:39;970.7;;;20.7;100.0
51227;BME280;42714;48.260;10.980;2023-07-16T02:39:41;970.7;;;20.7;100.0
51227;BME280;42714;48.260;10.980;2023-07-16T02:44:41;970.7;;;20.8;100.0
51227;BME280;42714;48.260;10.980;2023-07-16T02:49:42;970.7;;;20.8;100.0
51227;BME280;42714;48.260;10.980;2023-07-16T02:54:43;970.7;;;20.7;100.0
51227;BME280;42714;48.260;10.980;2023-07-16T02:59:44;970.8;;;20.6;100.0
51227;BME280;42714;48.260;10.980;2023-07-16T03:04:45;970.8;;;20.6;100.0
51227;BME280;42714;48.260;10.980;2023-07-16T03:09:46;970.7;;;20.7;100.0
51227;BME280;42714;48.260;10.980;2023-07-16T03:14:47;970.7;;;20.7;100.0
51227;BME280;42714;48.260;10.980;2023-07-16T03:19:48;970.7;;;20.7;100.0
51227;BME280;42714;48.260;10.980;2023-07-16T03:24:49;970.7;;;20.5;100.0
51227;BME280;42714;48.260;10.980;2023-07-16T03:29:50;971.0;;;20.3;100.0
51227;BME280;42714;48.260;10.980;2023-07-16T03:34:51;971.2;;;20.2;100.0
51227;BME280;42714;48.260;10.980;2023-07-16T03:39:52;971.3;;;20.3;100.0
51227;BME280;42714;48.260;10.980;2023-07-16T03:44:53;971.2;;;20.3;100.0
51227;BME280;42714;48.260;10.980;2023-07-16T03:49:54;971.2;;;20.3;100.0
51227;BME280;42714;48.260;10.980;2023-07-16T03:54:55;971.2;;;20.1;100.0
51227;BME280;42714;48.260;10.980;2023-07-16T03:59:56;971.2;;;20.0;100.0
51227;BME280;42714;48.260;10.980;2023-07-16T04:04:57;971.2;;;20.0;100.0
51227;BME280;42714;48.260;10.980;2023-07-16T04:09:58;971.3;;;19.9;100.0
51227;BME280;42714;48.260;10.980;2023-07-16T04:14:59;971.4;;;19.9;100.0
51227;BME280;42714;48.260;10.980;2023-07-16T04:20:00;971.4;;;19.9;100.0
51227;BME280;42714;48.260;10.980;2023-07-16T04:25:01;971.5;;;19.9;100.0
51227;BME280;42714;48.260;10.980;2023-07-16T04:30:02;971.6;;;19.9;100.0
51227;BME280;42714;48.260;10.980;2023-07-16T04:35:03;971.8;;;19.9;100.0
51227;BME280;42714;48.260;10.980;2023-07-16T04:50:06;971.7;;;20.1;100.0
51227;BME280;42714;48.260;10.980;2023-07-16T04:55:07;971.6;;;20.1;100.0
51227;BME280;42714;48.260;10.980;2023-07-16T05:05:09;971.8;;;20.0;100.0
51227;BME280;42714;48.260;10.980;2023-07-16T05:10:10;971.9;;;20.1;100.0
51227;BME280;42714;48.260;10.980;2023-07-16T05:15:11;971.8;;;20.3;100.0
51227;BME280;42714;48.260;10.980;2023-07-16T05:20:12;971.7;;;20.6;100.0
51227;BME280;42714;48.260;10.980;2023-07-16T05:25:13;971.9;;;20.6;100.0
51227;BME280;42714;48.260;10.980;2023-07-16T05:30:14;971.9;;;20.5;100.0
51227;BME280;42714;48.260;10.980;2023-07-16T05:35:15;972.0;;;20.6;100.0
51227;BME280;42714;48.260;10.980;2023-07-16T05:40:16;972.1;;;21.0;100.0
51227;BME280;42714;48.260;10.980;2023-07-16T05:45:17;972.1;;;21.0;100.0
51227;BME280;42714;48.260;10.980;2023-07-16T05:50:18;972.1;;;20.7;100.0
51227;BME280;42714;48.260;10.980;2023-07-16T05:55:19;972.2;;;20.7;100.0
51227;BME280;42714;48.260;10.980;2023-07-16T06:00:20;972.4;;;20.8;100.0
51227;BME280;42714;48.260;10.980;2023-07-16T06:05:21;972.4;;;20.6;100.0
51227;BME280;42714;48.260;10.980;2023-07-16T06:10:22;972.5;;;20.5;100.0
51227;BME280;42714;48.260;10.980;2023-07-16T06:15:23;972.5;;;20.4;100.0
51227;BME280;42714;48.260;10.980;2023-07-16T06:20:24;972.5;;;20.4;100.0
51227;BME280;42714;48.260;10.980;2023-07-16T06:25:25;972.6;;;20.4;100.0
51227;BME280;42714;48.260;10.980;2023-07-16T06:30:26;972.5;;;20.5;100.0
51227;BME280;42714;48.260;10.980;2023-07-16T06:35:27;972.5;;;20.5;100.0
51227;BME280;42714;48.260;10.980;2023-07-16T06:40:28;972.5;;;20.5;100.0
51227;BME280;42714;48.260;10.980;2023-07-16T06:45:29;972.6;;;20.4;100.0
51227;BME280;42714;48.260;10.980;2023-07-16T06:50:30;972.7;;;20.3;100.0
51227;BME280;42714;48.260;10.980;2023-07-16T06:55:31;972.7;;;20.2;100.0
51227;BME280;42714;48.260;10.980;2023-07-16T07:00:32;972.6;;;20.2;100.0
51227;BME280;42714;48.260;10.980;2023-07-16T07:05:33;972.6;;;20.2;100.0
51227;BME280;42714;48.260;10.980;2023-07-16T07:10:34;972.6;;;20.5;100.0
51227;BME280;42714;48.260;10.980;2023-07-16T07:15:35;972.4;;;20.8;100.0
51227;BME280;42714;48.260;10.980;2023-07-16T07:20:36;972.4;;;20.9;100.0
51227;BME280;42714;48.260;10.980;2023-07-16T07:25:37;972.6;;;20.9;100.0
51227;BME280;42714;48.260;10.980;2023-07-16T07:30:38;972.6;;;21.0;100.0
51227;BME280;42714;48.260;10.980;2023-07-16T07:35:39;972.4;;;20.9;100.0
51227;BME280;42714;48.260;10.980;2023-07-16T07:40:42;972.4;;;21.1;100.0
51227;BME280;42714;48.260;10.980;2023-07-16T07:45:41;972.4;;;21.5;100.0
51227;BME280;42714;48.260;10.980;2023-07-16T07:50:42;972.4;;;22.8;100.0
51227;BME280;42714;48.260;10.980;2023-07-16T07:55:43;972.2;;;24.2;100.0
51227;BME280;42714;48.260;10.980;2023-07-16T08:00:44;972.2;;;24.3;100.0
51227;BME280;42714;48.260;10.980;2023-07-16T08:05:47;972.1;;;24.4;100.0
51227;BME280;42714;48.260;10.980;2023-07-16T08:10:46;972.1;;;24.4;100.0
51227;BME280;42714;48.260;10.980;2023-07-16T08:15:47;972.1;;;24.6;100.0
51227;BME280;42714;48.260;10.980;2023-07-16T08:20:48;972.0;;;25.5;100.0
51227;BME280;42714;48.260;10.980;2023-07-16T08:25:49;972.1;;;28.5;98.0
51227;BME280;42714;48.260;10.980;2023-07-16T08:30:50;972.1;;;29.4;64.4
51227;BME280;42714;48.260;10.980;2023-07-16T08:35:51;972.1;;;28.9;74.5
51227;BME280;42714;48.260;10.980;2023-07-16T08:40:52;972.1;;;29.7;56.0
51227;BME280;42714;48.260;10.980;2023-07-16T08:45:53;972.2;;;28.9;71.0
51227;BME280;42714;48.260;10.980;2023-07-16T08:50:54;972.2;;;28.9;72.6
51227;BME280;42714;48.260;10.980;2023-07-16T08:55:55;972.3;;;29.0;66.7
51227;BME280;42714;48.260;10.980;2023-07-16T09:00:56;972.2;;;29.8;63.8
51227;BME280;42714;48.260;10.980;2023-07-16T09:05:57;972.3;;;29.1;63.4
51227;BME280;42714;48.260;10.980;2023-07-16T09:10:58;972.3;;;28.9;73.2
51227;BME280;42714;48.260;10.980;2023-07-16T09:15:59;972.1;;;30.3;62.4
51227;BME280;42714;48.260;10.980;2023-07-16T09:21:00;972.1;;;31.3;48.5
51227;BME280;42714;48.260;10.980;2023-07-16T09:26:01;972.0;;;32.4;45.0
51227;BME280;42714;48.260;10.980;2023-07-16T09:31:03;972.0;;;33.9;38.7
51227;BME280;42714;48.260;10.980;2023-07-16T09:36:03;971.9;;;35.4;35.2
51227;BME280;42714;48.260;10.980;2023-07-16T09:41:04;971.8;;;35.8;34.8
51227;BME280;42714;48.260;10.980;2023-07-16T09:46:05;971.8;;;36.3;33.5
51227;BME280;42714;48.260;10.980;2023-07-16T09:51:06;971.8;;;36.6;33.9
51227;BME280;42714;48.260;10.980;2023-07-16T09:56:08;971.9;;;36.3;33.6
51227;BME280;42714;48.260;10.980;2023-07-16T10:01:08;971.8;;;35.8;34.9
51227;BME280;42714;48.260;10.980;2023-07-16T10:06:09;971.8;;;36.3;34.1
51227;BME280;42714;48.260;10.980;2023-07-16T10:11:20;971.8;;;37.0;32.1
51227;BME280;42714;48.260;10.980;2023-07-16T10:16:19;971.8;;;36.3;32.5
51227;BME280;42714;48.260;10.980;2023-07-16T10:21:12;971.8;;;36.3;33.1
51227;BME280;42714;48.260;10.980;2023-07-16T10:26:14;971.8;;;36.0;33.3
51227;BME280;42714;48.260;10.980;2023-07-16T10:36:17;971.8;;;36.3;32.0
51227;BME280;42714;48.260;10.980;2023-07-16T10:41:17;971.9;;;35.8;33.7
51227;BME280;42714;48.260;10.980;2023-07-16T10:46:17;971.8;;;35.1;34.7
51227;BME280;42714;48.260;10.980;2023-07-16T10:51:19;971.8;;;33.9;38.4
51227;BME280;42714;48.260;10.980;2023-07-16T10:56:19;971.6;;;34.4;35.6
51227;BME280;42714;48.260;10.980;2023-07-16T11:01:20;971.7;;;35.7;34.4
51227;BME280;42714;48.260;10.980;2023-07-16T11:06:21;971.7;;;36.8;33.0
51227;BME280;42714;48.260;10.980;2023-07-16T11:16:23;971.6;;;35.9;32.5
51227;BME280;42714;48.260;10.980;2023-07-16T11:21:24;971.6;;;34.2;35.7
51227;BME280;42714;48.260;10.980;2023-07-16T11:26:25;971.6;;;33.5;36.5
51227;BME280;42714;48.260;10.980;2023-07-16T11:31:26;971.6;;;36.0;32.7
51227;BME280;42714;48.260;10.980;2023-07-16T11:36:28;971.6;;;37.8;29.9
51227;BME280;42714;48.260;10.980;2023-07-16T11:41:28;971.6;;;37.8;29.2
51227;BME280;42714;48.260;10.980;2023-07-16T11:46:31;971.4;;;37.6;31.4
51227;BME280;42714;48.260;10.980;2023-07-16T11:51:30;971.3;;;38.8;30.3
51227;BME280;42714;48.260;10.980;2023-07-16T11:56:31;971.3;;;37.2;31.9
51227;BME280;42714;48.260;10.980;2023-07-16T12:01:32;971.3;;;37.3;31.1
51227;BME280;42714;48.260;10.980;2023-07-16T12:06:33;971.3;;;37.1;30.8
51227;BME280;42714;48.260;10.980;2023-07-16T12:11:34;971.3;;;37.4;31.5
51227;BME280;42714;48.260;10.980;2023-07-16T12:16:35;971.2;;;38.2;29.5
51227;BME280;42714;48.260;10.980;2023-07-16T12:21:36;971.2;;;38.1;30.1
51227;BME280;42714;48.260;10.980;2023-07-16T12:26:37;971.2;;;37.9;29.5
51227;BME280;42714;48.260;10.980;2023-07-16T12:31:38;971.2;;;38.9;28.2
51227;BME280;42714;48.260;10.980;2023-07-16T12:36:39;971.2;;;38.5;27.3
51227;BME280;42714;48.260;10.980;2023-07-16T12:41:41;971.1;;;36.7;29.8
51227;BME280;42714;48.260;10.980;2023-07-16T12:46:41;971.2;;;35.0;31.7
51227;BME280;42714;48.260;10.980;2023-07-16T12:51:42;971.2;;;35.0;32.6
51227;BME280;42714;48.260;10.980;2023-07-16T12:56:43;971.1;;;34.2;34.3
51227;BME280;42714;48.260;10.980;2023-07-16T13:01:44;971.0;;;35.9;32.1
51227;BME280;42714;48.260;10.980;2023-07-16T13:06:45;971.0;;;37.6;28.4
51227;BME280;42714;48.260;10.980;2023-07-16T13:11:46;971.0;;;37.8;28.5
51227;BME280;42714;48.260;10.980;2023-07-16T13:16:47;971.0;;;36.1;31.1
51227;BME280;42714;48.260;10.980;2023-07-16T13:21:48;971.0;;;36.0;31.0
51227;BME280;42714;48.260;10.980;2023-07-16T13:26:49;971.0;;;35.3;33.2
51227;BME280;42714;48.260;10.980;2023-07-16T13:31:50;971.0;;;35.1;34.2
51227;BME280;42714;48.260;10.980;2023-07-16T13:36:51;971.0;;;36.1;31.8
51227;BME280;42714;48.260;10.980;2023-07-16T13:41:52;971.1;;;36.7;31.1
51227;BME280;42714;48.260;10.980;2023-07-16T13:46:53;971.1;;;36.7;31.3
51227;BME280;42714;48.260;10.980;2023-07-16T13:51:54;971.0;;;36.5;31.2
51227;BME280;42714;48.260;10.980;2023-07-16T13:56:55;971.0;;;37.2;31.1
51227;BME280;42714;48.260;10.980;2023-07-16T14:01:58;971.0;;;37.5;29.4
51227;BME280;42714;48.260;10.980;2023-07-16T14:06:58;971.0;;;37.8;30.5
51227;BME280;42714;48.260;10.980;2023-07-16T14:11:58;971.0;;;37.3;30.8
51227;BME280;42714;48.260;10.980;2023-07-16T14:16:59;970.9;;;37.4;30.1
51227;BME280;42714;48.260;10.980;2023-07-16T14:22:00;970.8;;;36.9;30.9
51227;BME280;42714;48.260;10.980;2023-07-16T14:27:01;970.8;;;36.7;30.2
51227;BME280;42714;48.260;10.980;2023-07-16T14:32:02;970.8;;;35.1;33.7
51227;BME280;42714;48.260;10.980;2023-07-16T14:37:03;970.9;;;33.9;35.0
51227;BME280;42714;48.260;10.980;2023-07-16T14:42:04;970.9;;;33.2;36.8
51227;BME280;42714;48.260;10.980;2023-07-16T14:47:05;970.8;;;32.2;41.4
51227;BME280;42714;48.260;10.980;2023-07-16T14:52:06;970.8;;;31.0;47.0
51227;BME280;42714;48.260;10.980;2023-07-16T14:57:07;970.8;;;31.4;46.3
51227;BME280;42714;48.260;10.980;2023-07-16T15:02:08;970.8;;;31.3;45.6
51227;BME280;42714;48.260;10.980;2023-07-16T15:07:09;970.8;;;30.8;51.6
51227;BME280;42714;48.260;10.980;2023-07-16T15:12:10;970.8;;;30.1;56.8
51227;BME280;42714;48.260;10.980;2023-07-16T15:17:11;970.9;;;30.2;59.8
51227;BME280;42714;48.260;10.980;2023-07-16T15:22:12;970.8;;;30.6;56.4
51227;BME280;42714;48.260;10.980;2023-07-16T15:27:13;970.8;;;30.4;59.0
51227;BME280;42714;48.260;10.980;2023-07-16T15:32:14;970.7;;;30.5;58.0
51227;BME280;42714;48.260;10.980;2023-07-16T15:37:15;970.7;;;29.8;61.4
51227;BME280;42714;48.260;10.980;2023-07-16T15:42:16;970.7;;;29.8;60.9
51227;BME280;42714;48.260;10.980;2023-07-16T15:47:17;970.8;;;30.5;56.6
51227;BME280;42714;48.260;10.980;2023-07-16T15:52:18;970.7;;;30.3;56.2
51227;BME280;42714;48.260;10.980;2023-07-16T15:57:19;970.8;;;29.8;66.2
51227;BME280;42714;48.260;10.980;2023-07-16T16:02:21;970.8;;;29.8;63.7
51227;BME280;42714;48.260;10.980;2023-07-16T16:07:21;970.8;;;29.8;64.0
51227;BME280;42714;48.260;10.980;2023-07-16T16:12:22;970.7;;;29.8;63.9
51227;BME280;42714;48.260;10.980;2023-07-16T16:17:23;970.6;;;29.5;66.0
51227;BME280;42714;48.260;10.980;2023-07-16T16:22:24;970.6;;;29.1;66.1
51227;BME280;42714;48.260;10.980;2023-07-16T16:27:25;970.6;;;28.7;64.4
51227;BME280;42714;48.260;10.980;2023-07-16T16:32:26;970.6;;;28.2;73.9
51227;BME280;42714;48.260;10.980;2023-07-16T16:37:27;970.6;;;27.8;79.9
51227;BME280;42714;48.260;10.980;2023-07-16T16:42:28;970.7;;;27.6;86.0
51227;BME280;42714;48.260;10.980;2023-07-16T16:47:29;970.7;;;27.4;82.8
51227;BME280;42714;48.260;10.980;2023-07-16T16:52:31;970.6;;;27.3;86.7
51227;BME280;42714;48.260;10.980;2023-07-16T16:57:31;970.7;;;27.4;86.3
51227;BME280;42714;48.260;10.980;2023-07-16T17:02:32;970.7;;;27.4;94.7
51227;BME280;42714;48.260;10.980;2023-07-16T17:07:33;970.7;;;27.3;91.9
51227;BME280;42714;48.260;10.980;2023-07-16T17:12:34;970.7;;;27.1;94.9
51227;BME280;42714;48.260;10.980;2023-07-16T17:17:35;970.7;;;27.0;95.3
51227;BME280;42714;48.260;10.980;2023-07-16T17:22:37;970.7;;;26.8;100.0
51227;BME280;42714;48.260;10.980;2023-07-16T17:27:37;970.8;;;26.6;100.0
51227;BME280;42714;48.260;10.980;2023-07-16T17:32:38;970.9;;;26.5;100.0
51227;BME280;42714;48.260;10.980;2023-07-16T17:37:40;970.9;;;26.4;100.0
51227;BME280;42714;48.260;10.980;2023-07-16T17:42:41;970.9;;;26.4;100.0
51227;BME280;42714;48.260;10.980;2023-07-16T17:47:41;970.9;;;26.4;100.0
51227;BME280;42714;48.260;10.980;2023-07-16T17:52:43;970.9;;;26.2;100.0
51227;BME280;42714;48.260;10.980;2023-07-16T17:57:44;970.9;;;26.0;100.0
51227;BME280;42714;48.260;10.980;2023-07-16T18:02:45;970.9;;;26.0;100.0
51227;BME280;42714;48.260;10.980;2023-07-16T18:07:46;970.9;;;25.8;100.0
51227;BME280;42714;48.260;10.980;2023-07-16T18:12:47;970.9;;;25.7;100.0
51227;BME280;42714;48.260;10.980;2023-07-16T18:17:48;970.9;;;25.6;100.0
51227;BME280;42714;48.260;10.980;2023-07-16T18:22:49;970.8;;;25.4;100.0
51227;BME280;42714;48.260;10.980;2023-07-16T18:27:50;970.8;;;25.3;100.0
51227;BME280;42714;48.260;10.980;2023-07-16T18:32:51;970.9;;;25.2;100.0
51227;BME280;42714;48.260;10.980;2023-07-16T18:37:52;971.0;;;25.0;100.0
51227;BME280;42714;48.260;10.980;2023-07-16T18:42:57;971.0;;;24.8;100.0
51227;BME280;42714;48.260;10.980;2023-07-16T18:47:54;970.9;;;24.7;100.0
51227;BME280;42714;48.260;10.980;2023-07-16T18:52:55;970.9;;;24.5;100.0
51227;BME280;42714;48.260;10.980;2023-07-16T18:57:56;970.9;;;24.3;100.0
51227;BME280;42714;48.260;10.980;2023-07-16T19:02:57;970.9;;;24.1;100.0
51227;BME280;42714;48.260;10.980;2023-07-16T19:07:58;971.0;;;24.0;100.0
51227;BME280;42714;48.260;10.980;2023-07-16T19:12:59;971.0;;;23.9;100.0
51227;BME280;42714;48.260;10.980;2023-07-16T19:18:00;971.1;;;23.8;100.0
51227;BME280;42714;48.260;10.980;2023-07-16T19:23:01;971.2;;;23.7;100.0
51227;BME280;42714;48.260;10.980;2023-07-16T19:28:02;971.3;;;23.5;100.0
51227;BME280;42714;48.260;10.980;2023-07-16T19:33:03;971.3;;;23.4;100.0
51227;BME280;42714;48.260;10.980;2023-07-16T19:38:04;971.3;;;23.3;100.0
51227;BME280;42714;48.260;10.980;2023-07-16T19:43:05;971.3;;;23.2;100.0
51227;BME280;42714;48.260;10.980;2023-07-16T19:48:06;971.4;;;23.1;100.0
51227;BME280;42714;48.260;10.980;2023-07-16T19:53:07;971.5;;;23.0;100.0
51227;BME280;42714;48.260;10.980;2023-07-16T19:58:08;971.5;;;22.9;100.0
51227;BME280;42714;48.260;10.980;2023-07-16T20:03:09;971.6;;;22.9;100.0
51227;BME280;42714;48.260;10.980;2023-07-16T20:08:10;971.6;;;23.0;100.0
51227;BME280;42714;48.260;10.980;2023-07-16T20:13:11;971.6;;;23.0;100.0
51227;BME280;42714;48.260;10.980;2023-07-16T20:18:13;971.6;;;23.1;100.0
51227;BME280;42714;48.260;10.980;2023-07-16T20:23:13;971.6;;;23.2;100.0
51227;BME280;42714;48.260;10.980;2023-07-16T20:28:16;971.8;;;23.3;100.0
51227;BME280;42714;48.260;10.980;2023-07-16T20:33:15;971.7;;;23.2;100.0
51227;BME280;42714;48.260;10.980;2023-07-16T20:38:16;971.5;;;22.8;100.0
51227;BME280;42714;48.260;10.980;2023-07-16T20:43:17;971.4;;;22.3;100.0
51227;BME280;42714;48.260;10.980;2023-07-16T20:48:18;971.2;;;21.9;100.0
51227;BME280;42714;48.260;10.980;2023-07-16T20:53:19;971.3;;;21.6;100.0
51227;BME280;42714;48.260;10.980;2023-07-16T20:58:20;971.2;;;21.5;100.0
51227;BME280;42714;48.260;10.980;2023-07-16T21:03:21;971.5;;;21.4;100.0
51227;BME280;42714;48.260;10.980;2023-07-16T21:08:22;971.5;;;21.4;100.0
51227;BME280;42714;48.260;10.980;2023-07-16T21:13:23;971.6;;;21.5;100.0
51227;BME280;42714;48.260;10.980;2023-07-16T21:18:24;971.8;;;21.3;100.0
51227;BME280;42714;48.260;10.980;2023-07-16T21:23:25;972.1;;;21.1;100.0
51227;BME280;42714;48.260;10.980;2023-07-16T21:28:26;972.4;;;20.9;100.0
51227;BME280;42714;48.260;10.980;2023-07-16T21:33:27;972.4;;;20.8;100.0
51227;BME280;42714;48.260;10.980;2023-07-16T21:38:28;972.2;;;20.9;100.0
51227;BME280;42714;48.260;10.980;2023-07-16T21:43:29;971.5;;;20.8;100.0
51227;BME280;42714;48.260;10.980;2023-07-16T21:48:30;970.9;;;20.6;100.0
51227;BME280;42714;48.260;10.980;2023-07-16T21:53:31;971.2;;;20.6;100.0
51227;BME280;42714;48.260;10.980;2023-07-16T21:58:32;971.8;;;20.3;100.0
51227;BME280;42714;48.260;10.980;2023-07-16T22:03:33;971.8;;;20.1;100.0
51227;BME280;42714;48.260;10.980;2023-07-16T22:08:34;971.9;;;20.0;100.0
51227;BME280;42714;48.260;10.980;2023-07-16T22:13:35;972.0;;;20.1;100.0
51227;BME280;42714;48.260;10.980;2023-07-16T22:18:36;972.1;;;20.1;100.0
51227;BME280;42714;48.260;10.980;2023-07-16T22:23:37;972.0;;;20.1;100.0
51227;BME280;42714;48.260;10.980;2023-07-16T22:28:38;971.9;;;20.0;100.0
51227;BME280;42714;48.260;10.980;2023-07-16T22:33:39;971.9;;;19.9;100.0
51227;BME280;42714;48.260;10.980;2023-07-16T22:38:40;971.9;;;19.9;100.0
51227;BME280;42714;48.260;10.980;2023-07-16T22:43:41;972.1;;;19.8;100.0
51227;BME280;42714;48.260;10.980;2023-07-16T22:48:42;972.1;;;19.8;100.0
51227;BME280;42714;48.260;10.980;2023-07-16T22:53:43;972.1;;;19.9;100.0
51227;BME280;42714;48.260;10.980;2023-07-16T22:58:44;972.2;;;20.0;100.0
51227;BME280;42714;48.260;10.980;2023-07-16T23:03:45;972.4;;;20.1;100.0
51227;BME280;42714;48.260;10.980;2023-07-16T23:08:46;972.7;;;20.1;100.0
51227;BME280;42714;48.260;10.980;2023-07-16T23:13:47;972.7;;;20.3;100.0
51227;BME280;42714;48.260;10.980;2023-07-16T23:18:48;972.5;;;20.5;100.0
51227;BME280;42714;48.260;10.980;2023-07-16T23:23:49;972.4;;;20.6;100.0
51227;BME280;42714;48.260;10.980;2023-07-16T23:28:50;972.5;;;20.5;100.0
51227;BME280;42714;48.260;10.980;2023-07-16T23:33:51;972.5;;;20.5;100.0
51227;BME280;42714;48.260;10.980;2023-07-16T23:38:52;972.4;;;20.4;100.0
51227;BME280;42714;48.260;10.980;2023-07-16T23:43:53;972.5;;;20.4;100.0
51227;BME280;42714;48.260;10.980;2023-07-16T23:48:54;972.7;;;20.3;100.0
51227;BME280;42714;48.260;10.980;2023-07-16T23:53:55;972.6;;;20.3;100.0
51227;BME280;42714;48.260;10.980;2023-07-16T23:58:56;972.9;;;20.2;100.0
